createdAt,value
2024-04-15T00:02:19.343Z,9.60
2024-04-15T00:04:47.347Z,9.60
2024-04-15T00:07:15.498Z,9.50
2024-04-15T00:09:46.255Z,9.50
2024-04-15T00:12:14.499Z,9.50
2024-04-15T00:14:42.263Z,9.40
2024-04-15T00:17:10.466Z,9.40
2024-04-15T00:19:39.353Z,9.40
2024-04-15T00:22:07.555Z,9.50
2024-04-15T00:24:35.857Z,9.40
2024-04-15T00:27:04.210Z,9.40
2024-04-15T00:29:31.942Z,9.40
2024-04-15T00:32:00.045Z,9.40
2024-04-15T00:34:28.613Z,9.30
2024-04-15T00:36:56.781Z,9.40
2024-04-15T00:39:26.771Z,9.30
2024-04-15T00:41:54.887Z,9.30
2024-04-15T00:44:32.205Z,9.30
2024-04-15T00:47:01.474Z,9.30
2024-04-15T00:49:33.609Z,9.40
2024-04-15T00:52:03.849Z,9.20
2024-04-15T00:54:33.616Z,9.30
2024-04-15T00:57:02.504Z,9.20
2024-04-15T00:59:31.585Z,9.20
2024-04-15T01:02:00.450Z,9.20
2024-04-15T01:04:28.520Z,9.20
2024-04-15T01:06:56.932Z,9.20
2024-04-15T01:09:24.910Z,9.10
2024-04-15T01:11:53.071Z,9.10
2024-04-15T01:14:20.950Z,9.10
2024-04-15T01:16:50.071Z,9.10
2024-04-15T01:19:17.931Z,9.10
2024-04-15T01:21:46.195Z,9.10
2024-04-15T01:24:14.021Z,9.10
2024-04-15T01:27:07.415Z,9.30
2024-04-15T01:29:35.611Z,9.00
2024-04-15T01:32:03.402Z,9.00
2024-04-15T01:34:31.587Z,9.00
2024-04-15T01:36:59.492Z,9.00
2024-04-15T01:39:27.987Z,9.00
2024-04-15T01:41:55.775Z,8.90
2024-04-15T01:44:23.878Z,8.90
2024-04-15T01:46:51.666Z,8.90
2024-04-15T01:49:19.890Z,8.90
2024-04-15T01:51:47.748Z,8.90
2024-04-15T01:54:15.926Z,8.80
2024-04-15T01:56:43.684Z,8.90
2024-04-15T01:59:11.888Z,8.90
2024-04-15T02:01:39.907Z,8.90
2024-04-15T02:04:08.096Z,8.90
2024-04-15T02:06:36.074Z,8.90
2024-04-15T02:09:04.290Z,8.90
2024-04-15T02:11:32.044Z,8.90
2024-04-15T02:14:00.258Z,8.90
2024-04-15T02:16:28.014Z,8.80
2024-04-15T02:18:56.205Z,8.80
2024-04-15T02:21:26.202Z,8.80
2024-04-15T02:23:54.405Z,8.80
2024-04-15T02:26:22.309Z,8.80
2024-04-15T02:28:50.403Z,8.80
2024-04-15T02:31:18.217Z,8.70
2024-04-15T02:33:46.524Z,8.70
2024-04-15T02:36:14.294Z,8.70
2024-04-15T02:38:42.607Z,8.70
2024-04-15T02:41:10.432Z,8.70
2024-04-15T02:43:38.810Z,8.70
2024-04-15T02:46:06.638Z,8.70
2024-04-15T02:48:34.879Z,8.70
2024-04-15T02:51:03.284Z,8.60
2024-04-15T02:53:33.817Z,8.70
2024-04-15T02:56:02.316Z,8.60
2024-04-15T02:58:30.500Z,8.60
2024-04-15T03:00:58.666Z,8.60
2024-04-15T03:03:27.060Z,8.50
2024-04-15T03:05:54.896Z,8.50
2024-04-15T03:08:23.032Z,8.50
2024-04-15T03:10:50.959Z,8.50
2024-04-15T03:13:20.250Z,8.50
2024-04-15T03:15:55.286Z,8.50
2024-04-15T03:18:23.577Z,8.50
2024-04-15T03:20:51.391Z,8.60
2024-04-15T03:23:19.683Z,8.60
2024-04-15T03:25:47.573Z,8.60
2024-04-15T03:28:15.961Z,8.60
2024-04-15T03:30:43.923Z,8.70
2024-04-15T03:33:12.180Z,8.70
2024-04-15T03:35:40.018Z,8.70
2024-04-15T03:38:08.179Z,8.70
2024-04-15T03:40:36.030Z,8.70
2024-04-15T03:43:04.427Z,8.70
2024-04-15T03:45:33.728Z,8.70
2024-04-15T03:48:02.074Z,8.70
2024-04-15T03:50:29.834Z,8.70
2024-04-15T03:53:00.089Z,8.70
2024-04-15T03:55:27.883Z,8.70
2024-04-15T03:57:56.408Z,8.70
2024-04-15T04:00:24.324Z,8.70
2024-04-15T04:02:53.966Z,8.60
2024-04-15T04:05:21.912Z,8.60
2024-04-15T04:07:50.680Z,8.70
2024-04-15T04:12:38.796Z,8.50
2024-04-15T04:15:07.389Z,8.50
2024-04-15T04:17:35.200Z,8.60
2024-04-15T04:20:03.568Z,8.60
2024-04-15T04:22:31.551Z,8.60
2024-04-15T04:24:59.938Z,8.60
2024-04-15T04:27:27.782Z,8.60
2024-04-15T04:29:56.024Z,8.60
2024-04-15T04:32:23.937Z,8.60
2024-04-15T04:37:25.519Z,8.60
2024-04-15T04:39:53.849Z,8.60
2024-04-15T04:42:21.649Z,8.70
2024-04-15T04:44:57.976Z,8.70
2024-04-15T04:47:25.927Z,8.70
2024-04-15T04:49:54.559Z,8.80
2024-04-15T04:52:22.406Z,8.80
2024-04-15T04:54:51.565Z,8.80
2024-04-15T04:57:19.349Z,8.90
2024-04-15T04:59:47.507Z,8.90
2024-04-15T05:02:15.330Z,8.90
2024-04-15T05:04:43.547Z,9.00
2024-04-15T05:07:11.402Z,9.00
2024-04-15T05:09:41.134Z,9.00
2024-04-15T05:12:09.668Z,9.10
2024-04-15T05:14:37.895Z,9.00
2024-04-15T05:17:05.991Z,9.10
2024-04-15T05:19:34.202Z,9.10
2024-04-15T05:22:01.965Z,9.20
2024-04-15T05:24:30.118Z,9.20
2024-04-15T05:26:58.788Z,9.20
2024-04-15T05:29:27.582Z,9.30
2024-04-15T05:31:55.458Z,9.30
2024-04-15T05:34:23.655Z,9.30
2024-04-15T05:36:51.423Z,9.40
2024-04-15T05:39:19.572Z,9.40
2024-04-15T05:41:47.347Z,9.40
2024-04-15T05:44:15.495Z,9.50
2024-04-15T05:46:53.134Z,9.50
2024-04-15T05:49:21.295Z,9.50
2024-04-15T05:51:49.112Z,9.50
2024-04-15T05:54:17.273Z,9.60
2024-04-15T05:56:45.127Z,9.60
2024-04-15T05:59:13.214Z,9.70
2024-04-15T06:01:41.084Z,9.70
2024-04-15T06:04:09.449Z,9.70
2024-04-15T06:06:37.803Z,9.70
2024-04-15T06:09:06.094Z,9.80
2024-04-15T06:11:33.847Z,9.90
2024-04-15T06:14:03.639Z,9.90
2024-04-15T06:16:31.595Z,10.00
2024-04-15T06:19:00.018Z,10.00
2024-04-15T06:21:27.785Z,10.10
2024-04-15T06:23:55.851Z,10.10
2024-04-15T06:26:24.021Z,10.20
2024-04-15T06:28:54.200Z,10.30
2024-04-15T06:31:22.079Z,10.30
2024-04-15T06:33:50.199Z,10.40
2024-04-15T06:36:17.913Z,10.50
2024-04-15T06:38:46.933Z,10.60
2024-04-15T06:41:15.660Z,10.60
2024-04-15T06:43:43.798Z,10.70
2024-04-15T06:46:11.543Z,10.70
2024-04-15T06:48:41.984Z,10.70
2024-04-15T06:51:10.055Z,10.80
2024-04-15T06:53:38.243Z,10.80
2024-04-15T06:56:06.149Z,10.80
2024-04-15T06:58:34.348Z,10.80
2024-04-15T07:01:02.214Z,10.90
2024-04-15T07:03:30.435Z,10.90
2024-04-15T07:05:58.211Z,11.00
2024-04-15T07:08:26.390Z,11.10
2024-04-15T07:10:54.232Z,11.20
2024-04-15T07:13:23.186Z,11.30
2024-04-15T07:15:51.341Z,11.30
2024-04-15T07:18:19.590Z,11.30
2024-04-15T07:20:47.519Z,11.50
2024-04-15T07:23:16.851Z,11.70
2024-04-15T07:25:45.363Z,12.20
2024-04-15T07:28:13.528Z,12.40
2024-04-15T07:30:41.270Z,12.70
2024-04-15T07:33:10.799Z,12.80
2024-04-15T07:35:39.166Z,12.90
2024-04-15T07:38:07.265Z,12.90
2024-04-15T07:40:35.077Z,12.70
2024-04-15T07:43:03.375Z,12.70
2024-04-15T07:45:31.156Z,12.80
2024-04-15T07:47:59.356Z,13.00
2024-04-15T07:50:27.364Z,13.30
2024-04-15T07:52:55.615Z,13.60
2024-04-15T07:55:23.584Z,13.80
2024-04-15T07:57:51.841Z,14.00
2024-04-15T08:00:19.832Z,14.00
2024-04-15T08:02:47.971Z,14.20
2024-04-15T08:05:15.844Z,14.30
2024-04-15T08:07:44.152Z,14.40
2024-04-15T08:10:12.443Z,14.50
2024-04-15T08:12:43.250Z,14.40
2024-04-15T08:15:12.560Z,14.50
2024-04-15T08:17:40.790Z,14.60
2024-04-15T08:20:09.389Z,14.40
2024-04-15T08:22:37.478Z,14.20
2024-04-15T08:25:09.887Z,14.00
2024-04-15T08:27:38.811Z,13.80
2024-04-15T08:30:07.317Z,13.60
2024-04-15T08:32:36.169Z,13.50
2024-04-15T08:35:04.247Z,13.30
2024-04-15T08:37:33.391Z,13.10
2024-04-15T08:40:01.522Z,12.90
2024-04-15T08:42:32.828Z,12.80
2024-04-15T08:45:02.208Z,12.60
2024-04-15T08:47:31.760Z,12.40
2024-04-15T08:49:59.957Z,12.30
2024-04-15T08:52:28.199Z,12.20
2024-04-15T08:54:56.171Z,12.10
2024-04-15T08:57:25.716Z,12.00
2024-04-15T08:59:53.620Z,11.90
2024-04-15T09:02:22.774Z,11.70
2024-04-15T09:04:55.114Z,11.60
2024-04-15T09:07:25.990Z,11.40
2024-04-15T09:09:56.670Z,11.30
2024-04-15T09:12:25.160Z,11.10
2024-04-15T09:14:52.902Z,10.90
2024-04-15T09:17:21.576Z,10.70
2024-04-15T09:19:51.588Z,10.50
2024-04-15T09:22:20.263Z,10.20
2024-04-15T09:24:48.706Z,10.10
2024-04-15T09:27:17.491Z,9.90
2024-04-15T09:29:47.779Z,9.90
2024-04-15T09:32:18.726Z,9.80
2024-04-15T09:34:48.017Z,9.90
2024-04-15T09:37:17.465Z,9.90
2024-04-15T09:39:46.701Z,9.90
2024-04-15T09:42:16.995Z,9.90
2024-04-15T09:44:47.735Z,9.90
2024-04-15T09:47:16.298Z,9.90
2024-04-15T09:49:45.714Z,10.00
2024-04-15T09:52:21.893Z,10.10
2024-04-15T09:55:01.888Z,10.10
2024-04-15T09:57:35.291Z,10.20
2024-04-15T10:00:04.022Z,10.20
2024-04-15T10:03:09.183Z,10.30
2024-04-15T10:05:42.190Z,10.40
2024-04-15T10:08:11.385Z,10.50
2024-04-15T10:10:42.448Z,10.50
2024-04-15T10:13:12.180Z,10.60
2024-04-15T10:15:43.045Z,10.70
2024-04-15T10:18:14.235Z,10.90
2024-04-15T10:20:43.636Z,11.20
2024-04-15T10:23:16.164Z,11.40
2024-04-15T10:25:44.161Z,11.70
2024-04-15T10:28:15.636Z,11.90
2024-04-15T10:30:47.853Z,12.00
2024-04-15T10:33:21.450Z,12.20
2024-04-15T10:35:53.454Z,12.30
2024-04-15T10:38:21.673Z,12.40
2024-04-15T10:40:50.406Z,12.50
2024-04-15T10:43:22.935Z,12.40
2024-04-15T10:45:51.307Z,12.30
2024-04-15T10:48:19.776Z,12.20
2024-04-15T10:50:47.489Z,12.30
2024-04-15T10:53:16.525Z,12.30
2024-04-15T10:55:44.580Z,12.60
2024-04-15T10:58:13.959Z,12.70
2024-04-15T11:00:45.283Z,12.70
2024-04-15T11:03:14.017Z,12.80
2024-04-15T11:05:43.659Z,12.90
2024-04-15T11:08:14.738Z,13.10
2024-04-15T11:10:43.208Z,13.10
2024-04-15T11:13:12.607Z,13.20
2024-04-15T11:15:41.503Z,13.40
2024-04-15T11:18:16.686Z,13.50
2024-04-15T11:20:45.510Z,13.70
2024-04-15T11:23:14.704Z,13.70
2024-04-15T11:25:44.974Z,13.80
2024-04-15T11:28:17.907Z,13.80
2024-04-15T11:30:47.471Z,13.80
2024-04-15T11:33:16.365Z,13.80
2024-04-15T11:35:51.676Z,13.70
2024-04-15T11:38:23.037Z,13.60
2024-04-15T11:40:54.817Z,13.40
2024-04-15T11:43:23.549Z,13.50
2024-04-15T11:45:56.537Z,13.50
2024-04-15T11:48:26.819Z,13.50
2024-04-15T11:50:55.646Z,13.40
2024-04-15T11:53:25.951Z,13.50
2024-04-15T11:55:55.536Z,13.50
2024-04-15T11:58:24.272Z,13.50
2024-04-15T12:00:53.295Z,13.60
2024-04-15T12:03:27.353Z,13.60
2024-04-15T12:05:55.727Z,13.60
2024-04-15T12:08:24.210Z,13.60
2024-04-15T12:10:53.503Z,13.60
2024-04-15T12:13:22.055Z,13.50
2024-04-15T12:15:49.995Z,13.30
2024-04-15T12:18:18.383Z,13.30
2024-04-15T12:20:46.229Z,13.50
2024-04-15T12:23:14.338Z,13.50
2024-04-15T12:25:42.372Z,13.50
2024-04-15T12:28:10.934Z,13.50
2024-04-15T12:30:39.365Z,13.40
2024-04-15T12:33:07.592Z,13.40
2024-04-15T12:35:35.544Z,13.40
2024-04-15T12:38:04.092Z,13.30
2024-04-15T12:40:31.985Z,13.30
2024-04-15T12:43:00.270Z,13.30
2024-04-15T12:45:28.310Z,13.40
2024-04-15T12:47:56.948Z,13.60
2024-04-15T12:50:25.298Z,13.80
2024-04-15T12:52:54.008Z,13.80
2024-04-15T12:55:22.448Z,13.90
2024-04-15T12:57:50.897Z,13.90
2024-04-15T13:00:18.800Z,13.90
2024-04-15T13:02:47.302Z,13.90
2024-04-15T13:05:15.252Z,14.00
2024-04-15T13:07:43.442Z,13.90
2024-04-15T13:10:11.621Z,13.90
2024-04-15T13:12:40.310Z,13.80
2024-04-15T13:15:08.374Z,13.80
2024-04-15T13:17:37.126Z,13.80
2024-04-15T13:20:06.213Z,13.70
2024-04-15T13:22:34.679Z,13.60
2024-04-15T13:25:02.495Z,13.60
2024-04-15T13:27:31.575Z,13.60
2024-04-15T13:29:59.381Z,13.80
2024-04-15T13:32:28.185Z,14.00
2024-04-15T13:34:57.859Z,14.10
2024-04-15T13:37:26.790Z,14.20
2024-04-15T13:39:54.649Z,14.10
2024-04-15T13:42:22.995Z,14.10
2024-04-15T13:44:50.883Z,14.10
2024-04-15T13:47:19.295Z,14.10
2024-04-15T13:49:47.150Z,14.00
2024-04-15T13:52:15.321Z,14.00
2024-04-15T13:54:44.710Z,14.10
2024-04-15T13:57:13.106Z,14.30
2024-04-15T13:59:41.049Z,14.30
2024-04-15T14:02:10.344Z,14.30
2024-04-15T14:04:39.032Z,14.30
2024-04-15T14:07:07.568Z,14.20
2024-04-15T14:09:35.495Z,14.20
2024-04-15T14:12:03.992Z,14.20
2024-04-15T14:14:34.516Z,14.20
2024-04-15T14:17:08.020Z,14.10
2024-04-15T14:19:36.130Z,14.20
2024-04-15T14:22:05.635Z,14.30
2024-04-15T14:24:33.586Z,14.30
2024-04-15T14:27:04.219Z,14.40
2024-04-15T14:29:32.167Z,14.40
2024-04-15T14:32:00.547Z,14.50
2024-04-15T14:34:28.623Z,14.40
2024-04-15T14:37:02.097Z,14.40
2024-04-15T14:39:30.162Z,14.20
2024-04-15T14:41:58.424Z,14.20
2024-04-15T14:44:26.454Z,14.00
2024-04-15T14:46:54.862Z,13.90
2024-04-15T14:49:26.977Z,13.90
2024-04-15T14:51:56.935Z,13.90
2024-04-15T14:54:24.663Z,13.90
2024-04-15T14:56:53.067Z,13.80
2024-04-15T14:59:21.306Z,13.80
2024-04-15T15:01:49.811Z,13.80
2024-04-15T15:04:19.153Z,13.70
2024-04-15T15:06:47.436Z,13.70
2024-04-15T15:09:15.198Z,13.70
2024-04-15T15:11:43.528Z,13.70
2024-04-15T15:14:11.339Z,13.70
2024-04-15T15:16:39.665Z,13.70
2024-04-15T15:19:08.554Z,13.70
2024-04-15T15:21:36.790Z,13.60
2024-04-15T15:24:04.839Z,13.70
2024-04-15T15:26:33.202Z,13.70
2024-04-15T15:29:01.186Z,13.60
2024-04-15T15:31:29.924Z,13.70
2024-04-15T15:33:58.102Z,13.80
2024-04-15T15:36:26.678Z,13.70
2024-04-15T15:38:54.435Z,13.80
2024-04-15T15:41:22.715Z,13.80
2024-04-15T15:43:50.825Z,13.80
2024-04-15T15:46:20.202Z,13.80
2024-04-15T15:48:49.281Z,13.80
2024-04-15T15:51:17.715Z,13.90
2024-04-15T15:53:45.554Z,14.00
2024-04-15T15:56:16.420Z,14.00
2024-04-15T15:58:45.600Z,14.00
2024-04-15T16:01:14.094Z,13.80
2024-04-15T16:03:42.187Z,13.60
2024-04-15T16:06:10.755Z,13.50
2024-04-15T16:08:38.703Z,13.30
2024-04-15T16:11:07.295Z,13.10
2024-04-15T16:13:37.906Z,12.80
2024-04-15T16:16:06.687Z,12.80
2024-04-15T16:18:34.630Z,12.60
2024-04-15T16:21:02.978Z,12.50
2024-04-15T16:23:31.108Z,12.40
2024-04-15T16:25:59.633Z,12.30
2024-04-15T16:28:27.578Z,12.20
2024-04-15T16:30:55.907Z,12.00
2024-04-15T16:33:23.846Z,11.90
2024-04-15T16:35:52.065Z,11.80
2024-04-15T16:38:19.901Z,11.70
2024-04-15T16:40:49.487Z,11.60
2024-04-15T16:43:17.538Z,11.50
2024-04-15T16:45:45.692Z,11.50
2024-04-15T16:48:14.985Z,11.40
2024-04-15T16:50:43.102Z,11.40
2024-04-15T16:53:10.969Z,11.30
2024-04-15T16:55:39.406Z,11.40
2024-04-15T16:58:07.452Z,11.30
2024-04-15T17:00:36.595Z,11.20
2024-04-15T17:03:06.282Z,11.10
2024-04-15T17:05:37.759Z,11.00
2024-04-15T17:08:05.933Z,11.00
2024-04-15T17:10:34.762Z,11.10
2024-04-15T17:13:02.656Z,11.10
2024-04-15T17:15:31.195Z,11.20
2024-04-15T17:17:59.427Z,11.30
2024-04-15T17:20:28.520Z,11.30
2024-04-15T17:22:57.134Z,11.30
2024-04-15T17:25:25.512Z,11.30
2024-04-15T17:27:53.550Z,11.30
2024-04-15T17:30:21.908Z,11.20
2024-04-15T17:32:49.789Z,11.30
2024-04-15T17:35:20.002Z,11.30
2024-04-15T17:37:48.183Z,11.30
2024-04-15T17:40:17.908Z,11.20
2024-04-15T17:42:45.930Z,11.10
2024-04-15T17:45:14.313Z,11.00
2024-04-15T17:47:42.832Z,10.90
2024-04-15T17:50:10.990Z,10.80
2024-04-15T17:52:38.881Z,10.70
2024-04-15T17:55:07.935Z,10.60
2024-04-15T17:57:36.107Z,10.60
2024-04-15T18:00:05.171Z,10.50
2024-04-15T18:02:33.222Z,10.50
2024-04-15T18:05:01.624Z,10.40
2024-04-15T18:07:32.803Z,10.30
2024-04-15T18:10:01.813Z,10.30
2024-04-15T18:12:29.777Z,10.30
2024-04-15T18:14:58.264Z,10.30
2024-04-15T18:17:26.794Z,10.30
2024-04-15T18:19:55.226Z,10.30
2024-04-15T18:22:23.022Z,10.30
2024-04-15T18:24:52.184Z,10.30
2024-04-15T18:27:20.243Z,10.40
2024-04-15T18:29:49.723Z,10.40
2024-04-15T18:32:17.608Z,10.40
2024-04-15T18:34:45.810Z,10.50
2024-04-15T18:37:15.822Z,10.50
2024-04-15T18:39:45.318Z,10.50
2024-04-15T18:42:13.368Z,10.40
2024-04-15T18:44:43.440Z,10.40
2024-04-15T18:47:12.638Z,10.40
2024-04-15T18:49:40.968Z,10.40
2024-04-15T18:52:08.852Z,10.30
2024-04-15T18:54:37.579Z,10.30
2024-04-15T18:57:05.690Z,10.20
2024-04-15T18:59:33.954Z,10.20
2024-04-15T19:02:01.793Z,10.20
2024-04-15T19:04:30.218Z,10.10
2024-04-15T19:06:58.316Z,10.10
2024-04-15T19:09:26.480Z,10.00
2024-04-15T19:11:54.883Z,9.90
2024-04-15T19:14:25.684Z,9.80
2024-04-15T19:16:55.748Z,9.80
2024-04-15T19:19:24.634Z,9.70
2024-04-15T19:21:52.466Z,9.70
2024-04-15T19:24:20.739Z,9.60
2024-04-15T19:26:48.532Z,9.60
2024-04-15T19:29:16.632Z,9.50
2024-04-15T19:31:44.473Z,9.50
2024-04-15T19:34:12.676Z,9.40
2024-04-15T19:36:40.513Z,9.40
2024-04-15T19:39:08.890Z,9.30
2024-04-15T19:41:38.531Z,9.20
2024-04-15T19:44:07.068Z,9.30
2024-04-15T19:46:35.164Z,9.20
2024-04-15T19:49:03.486Z,9.10
2024-04-15T19:51:31.544Z,9.00
2024-04-15T19:53:59.344Z,9.10
2024-04-15T19:56:28.526Z,9.10
2024-04-15T19:58:57.160Z,9.10
2024-04-15T20:01:25.375Z,9.00
2024-04-15T20:03:53.291Z,9.00
2024-04-15T20:06:21.928Z,9.00
2024-04-15T20:08:49.820Z,8.90
2024-04-15T20:11:18.285Z,8.90
2024-04-15T20:13:46.166Z,8.90
2024-04-15T20:16:14.569Z,8.80
2024-04-15T20:18:54.959Z,8.80
2024-04-15T20:21:23.748Z,8.80
2024-04-15T20:23:51.699Z,8.80
2024-04-15T20:26:20.243Z,8.80
2024-04-15T20:28:48.151Z,8.70
2024-04-15T20:31:16.424Z,8.70
2024-04-15T20:33:44.343Z,8.70
2024-04-15T20:36:12.812Z,8.70
2024-04-15T20:38:43.232Z,8.70
2024-04-15T20:41:11.627Z,8.70
2024-04-15T20:43:39.561Z,8.70
2024-04-15T20:46:11.095Z,8.60
2024-04-15T20:48:39.279Z,8.60
2024-04-15T20:51:07.484Z,8.60
2024-04-15T20:53:35.782Z,8.70
2024-04-15T20:56:04.396Z,8.60
2024-04-15T20:58:32.282Z,8.60
2024-04-15T21:01:04.444Z,8.60
2024-04-15T21:03:33.790Z,8.60
2024-04-15T21:06:02.337Z,8.60
2024-04-15T21:08:30.162Z,8.60
2024-04-15T21:10:58.534Z,8.60
2024-04-15T21:13:26.679Z,8.60
2024-04-15T21:15:57.166Z,8.60
2024-04-15T21:18:25.118Z,8.70
2024-04-15T21:20:53.315Z,8.70
2024-04-15T21:23:21.174Z,8.70
2024-04-15T21:25:49.448Z,8.80
2024-04-15T21:28:17.296Z,8.80
2024-04-15T21:30:45.659Z,8.80
2024-04-15T21:33:13.986Z,8.80
2024-04-15T21:35:42.386Z,8.90
2024-04-15T21:38:10.436Z,8.90
2024-04-15T21:40:38.652Z,8.90
2024-04-15T21:43:06.509Z,8.30
2024-04-15T21:45:34.838Z,8.90
2024-04-15T21:48:06.043Z,8.90
2024-04-15T21:50:34.206Z,9.00
2024-04-15T21:53:01.948Z,9.00
2024-04-15T21:55:30.528Z,9.00
2024-04-15T21:57:59.599Z,9.00
2024-04-15T22:00:27.961Z,9.10
2024-04-15T22:02:57.945Z,9.00
2024-04-15T22:05:27.827Z,9.10
2024-04-15T22:07:57.147Z,9.10
2024-04-15T22:10:26.719Z,9.10
2024-04-15T22:12:55.958Z,9.10
2024-04-15T22:15:29.375Z,9.10
2024-04-15T22:17:59.544Z,9.10
2024-04-15T22:20:29.273Z,9.10
2024-04-15T22:23:00.610Z,9.10
2024-04-15T22:25:30.887Z,9.10
2024-04-15T22:28:00.853Z,9.20
2024-04-15T22:30:30.487Z,9.20
2024-04-15T22:32:59.766Z,9.20
2024-04-15T22:35:29.532Z,9.20
2024-04-15T22:37:57.767Z,9.20
2024-04-15T22:40:26.737Z,9.20
2024-04-15T22:42:54.744Z,9.20
2024-04-15T22:45:23.019Z,9.20
2024-04-15T22:47:50.885Z,9.20
2024-04-15T22:50:19.181Z,9.20
2024-04-15T22:52:47.008Z,9.20
2024-04-15T22:55:15.405Z,9.20
2024-04-15T22:57:43.426Z,9.20
2024-04-15T23:00:12.489Z,9.20
2024-04-15T23:02:40.477Z,9.20
2024-04-15T23:05:08.708Z,9.20
2024-04-15T23:07:36.934Z,9.20
2024-04-15T23:10:05.512Z,9.20
2024-04-15T23:12:33.459Z,9.20
2024-04-15T23:15:01.710Z,9.10
2024-04-15T23:17:29.829Z,9.10
2024-04-15T23:19:58.216Z,9.10
2024-04-15T23:22:26.139Z,9.10
2024-04-15T23:24:54.588Z,9.10
2024-04-15T23:27:22.438Z,9.00
2024-04-15T23:29:50.764Z,9.00
2024-04-15T23:32:18.546Z,8.90
2024-04-15T23:34:46.753Z,8.80
2024-04-15T23:37:14.504Z,8.70
2024-04-15T23:39:42.611Z,8.60
2024-04-15T23:42:10.387Z,8.60
2024-04-15T23:44:38.564Z,8.60
2024-04-15T23:47:25.268Z,8.50
2024-04-15T23:50:12.122Z,8.50
2024-04-15T23:52:58.705Z,8.50
2024-04-15T23:55:45.482Z,8.50
2024-04-15T23:58:16.462Z,8.50
